Time;durP1;ratioP1;P1;durP2;ratioP2;P2;SDS_P1;SDS_P2;PMS_P1;PMS_P2;Temp;Humidity;BMP_temperature;BMP_pressure;BME280_temperature;BME280_humidity;BME280_pressure;Samples;Min_cycle;Max_cycle;Signal;HPM_P1;HPM_P2
2020/05/11 00:02:06;;;;;;;7.1;5.6;;;;;;;;;;;;;
2020/05/11 00:04:31;;;;;;;7.1;6.4;;;;;;;;;;;;;
2020/05/11 00:06:56;;;;;;;7.4;6.1;;;;;;;;;;;;;
2020/05/11 00:09:21;;;;;;;6.8;6;;;;;;;;;;;;;
2020/05/11 00:11:46;;;;;;;6.9;6.2;;;;;;;;;;;;;
2020/05/11 00:14:11;;;;;;;6.5;5.8;;;;;;;;;;;;;
2020/05/11 00:16:36;;;;;;;7;6.3;;;;;;;;;;;;;
2020/05/11 00:19:01;;;;;;;6.7;6;;;;;;;;;;;;;
2020/05/11 00:21:27;;;;;;;8.9;6.4;;;;;;;;;;;;;
2020/05/11 00:23:52;;;;;;;6.8;6.1;;;;;;;;;;;;;
2020/05/11 00:26:18;;;;;;;6.7;6.1;;;;;;;;;;;;;
2020/05/11 00:28:43;;;;;;;7.4;6.6;;;;;;;;;;;;;
2020/05/11 00:31:08;;;;;;;6.6;5.9;;;;;;;;;;;;;
2020/05/11 00:33:33;;;;;;;7.3;6.1;;;;;;;;;;;;;
2020/05/11 00:35:58;;;;;;;6.9;6.1;;;;;;;;;;;;;
2020/05/11 00:38:23;;;;;;;7.1;6.4;;;;;;;;;;;;;
2020/05/11 00:40:48;;;;;;;7.4;6.2;;;;;;;;;;;;;
2020/05/11 00:43:13;;;;;;;7.7;6.9;;;;;;;;;;;;;
2020/05/11 00:45:39;;;;;;;7.3;6.6;;;;;;;;;;;;;
2020/05/11 00:48:08;;;;;;;7.3;6.4;;;;;;;;;;;;;
2020/05/11 00:50:51;;;;;;;7.6;6.8;;;;;;;;;;;;;
2020/05/11 00:52:54;;;;;;;7.7;6.9;;;;;;;;;;;;;
2020/05/11 00:55:19;;;;;;;8.4;7.4;;;;;;;;;;;;;
2020/05/11 00:57:44;;;;;;;7.8;6.9;;;;;;;;;;;;;
2020/05/11 01:00:10;;;;;;;7.8;7;;;;;;;;;;;;;
2020/05/11 01:02:36;;;;;;;8.9;8;;;;;;;;;;;;;
2020/05/11 01:05:01;;;;;;;9;7.7;;;;;;;;;;;;;
2020/05/11 01:07:26;;;;;;;8.7;7.6;;;;;;;;;;;;;
2020/05/11 01:09:51;;;;;;;8.1;7.3;;;;;;;;;;;;;
2020/05/11 01:12:17;;;;;;;7.9;7.2;;;;;;;;;;;;;
2020/05/11 01:14:42;;;;;;;8.8;7.9;;;;;;;;;;;;;
2020/05/11 01:17:07;;;;;;;8.6;7.8;;;;;;;;;;;;;
2020/05/11 01:19:32;;;;;;;8.7;7.8;;;;;;;;;;;;;
2020/05/11 01:21:57;;;;;;;8.6;7.8;;;;;;;;;;;;;
2020/05/11 01:24:22;;;;;;;8.9;8.1;;;;;;;;;;;;;
2020/05/11 01:26:48;;;;;;;10;9;;;;;;;;;;;;;
2020/05/11 01:29:13;;;;;;;9.8;8.4;;;;;;;;;;;;;
2020/05/11 01:31:38;;;;;;;12;8.9;;;;;;;;;;;;;
2020/05/11 01:34:03;;;;;;;9.9;8.7;;;;;;;;;;;;;
2020/05/11 01:36:28;;;;;;;9.8;8.8;;;;;;;;;;;;;
2020/05/11 01:38:53;;;;;;;9.5;8.5;;;;;;;;;;;;;
2020/05/11 01:41:20;;;;;;;9.6;8.5;;;;;;;;;;;;;
2020/05/11 01:43:47;;;;;;;9.3;8.5;;;;;;;;;;;;;
2020/05/11 01:46:12;;;;;;;10.8;8.6;;;;;;;;;;;;;
2020/05/11 01:48:38;;;;;;;9.4;8.5;;;;;;;;;;;;;
2020/05/11 01:51:03;;;;;;;9.7;8.7;;;;;;;;;;;;;
2020/05/11 01:53:28;;;;;;;9.5;8.6;;;;;;;;;;;;;
2020/05/11 01:55:53;;;;;;;9.7;8.7;;;;;;;;;;;;;
2020/05/11 01:58:18;;;;;;;9.1;8.2;;;;;;;;;;;;;
2020/05/11 02:00:43;;;;;;;9.2;8.3;;;;;;;;;;;;;
2020/05/11 02:03:08;;;;;;;9.3;8.4;;;;;;;;;;;;;
2020/05/11 02:05:34;;;;;;;9.5;8.5;;;;;;;;;;;;;
2020/05/11 02:07:59;;;;;;;11.1;9;;;;;;;;;;;;;
2020/05/11 02:10:33;;;;;;;10.9;9.6;;;;;;;;;;;;;
2020/05/11 02:13:00;;;;;;;10.9;9.8;;;;;;;;;;;;;
2020/05/11 02:15:26;;;;;;;10.7;9.6;;;;;;;;;;;;;
2020/05/11 02:17:51;;;;;;;11.2;10.1;;;;;;;;;;;;;
2020/05/11 02:20:18;;;;;;;12.2;10.1;;;;;;;;;;;;;
2020/05/11 02:22:49;;;;;;;11;10;;;;;;;;;;;;;
2020/05/11 02:25:23;;;;;;;11.5;10.4;;;;;;;;;;;;;
2020/05/11 02:30:23;;;;;;;11.2;10.1;;;;;;;;;;;;;
2020/05/11 02:32:25;;;;;;;11.5;10.4;;;;;;;;;;;;;
2020/05/11 02:34:50;;;;;;;12.3;11.1;;;;;;;;;;;;;
2020/05/11 02:37:15;;;;;;;11.7;10.7;;;;;;;;;;;;;
2020/05/11 02:39:40;;;;;;;11.8;10.7;;;;;;;;;;;;;
2020/05/11 02:42:05;;;;;;;12.9;11.6;;;;;;;;;;;;;
2020/05/11 02:44:30;;;;;;;13.6;12.1;;;;;;;;;;;;;
2020/05/11 02:46:55;;;;;;;13.2;12;;;;;;;;;;;;;
2020/05/11 02:49:22;;;;;;;12.6;11.4;;;;;;;;;;;;;
2020/05/11 02:51:47;;;;;;;12.6;11.4;;;;;;;;;;;;;
2020/05/11 02:54:13;;;;;;;13;11.8;;;;;;;;;;;;;
2020/05/11 02:56:38;;;;;;;13.2;11.9;;;;;;;;;;;;;
2020/05/11 02:59:03;;;;;;;13.7;12.4;;;;;;;;;;;;;
2020/05/11 03:01:28;;;;;;;14.8;13.3;;;;;;;;;;;;;
2020/05/11 03:03:53;;;;;;;15.6;14.1;;;;;;;;;;;;;
2020/05/11 03:06:18;;;;;;;14.5;13.2;;;;;;;;;;;;;
2020/05/11 03:08:43;;;;;;;15.4;14;;;;;;;;;;;;;
2020/05/11 03:11:10;;;;;;;15.4;13.9;;;;;;;;;;;;;
2020/05/11 03:13:36;;;;;;;14.8;13.3;;;;;;;;;;;;;
2020/05/11 03:16:40;;;;;;;16;14.5;;;;;;;;;;;;;
2020/05/11 03:18:32;;;;;;;17.5;15.5;;;;;;;;;;;;;
2020/05/11 03:20:52;;;;;;;18.4;16.5;;;;;;;;;;;;;
2020/05/11 03:23:17;;;;;;;20.4;18.4;;;;;;;;;;;;;
2020/05/11 03:28:07;;;;;;;19.8;17.8;;;;;;;;;;;;;
2020/05/11 03:30:32;;;;;;;19.2;17.3;;;;;;;;;;;;;
2020/05/11 03:32:57;;;;;;;17.9;16.1;;;;;;;;;;;;;
2020/05/11 03:35:23;;;;;;;18.5;16.7;;;;;;;;;;;;;
2020/05/11 03:37:48;;;;;;;18.5;16.8;;;;;;;;;;;;;
2020/05/11 03:40:16;;;;;;;17.4;15.7;;;;;;;;;;;;;
2020/05/11 03:42:42;;;;;;;18.5;16.7;;;;;;;;;;;;;
2020/05/11 03:45:07;;;;;;;20.2;18.3;;;;;;;;;;;;;
2020/05/11 03:47:32;;;;;;;19.2;17.3;;;;;;;;;;;;;
2020/05/11 03:49:57;;;;;;;18;16.2;;;;;;;;;;;;;
2020/05/11 03:52:22;;;;;;;17.8;16;;;;;;;;;;;;;
2020/05/11 03:54:48;;;;;;;18.1;16.2;;;;;;;;;;;;;
2020/05/11 03:57:13;;;;;;;18.2;16.5;;;;;;;;;;;;;
2020/05/11 03:59:38;;;;;;;18.8;16.9;;;;;;;;;;;;;
2020/05/11 04:02:28;;;;;;;20.8;18.7;;;;;;;14.43;100;941.5833;;;;
2020/05/11 04:04:53;;;;;;;21.9;19.7;;;;;;;14.22;100;941.4606;;;;
2020/05/11 04:07:18;;;;;;;21.4;19.3;;;;;;;14.39;100;941.3754;;;;
2020/05/11 04:09:43;;;;;;;20;18;;;;;;;14.56;100;941.4746;;;;
2020/05/11 04:12:09;;;;;;;19.3;17.5;;;;;;;14.49;100;941.467;;;;
2020/05/11 04:14:34;;;;;;;20.1;18.1;;;;;;;14.45;100;941.4771;;;;
2020/05/11 04:16:59;;;;;;;21.7;19.5;;;;;;;14.34;100;941.4061;;;;
2020/05/11 04:19:24;;;;;;;20.8;18.8;;;;;;;14.3;100;941.4522;;;;
2020/05/11 04:21:49;;;;;;;21;19.1;;;;;;;14.39;100;941.486;;;;
2020/05/11 04:24:15;;;;;;;20.2;18.2;;;;;;;14.61;100;941.5945;;;;
2020/05/11 04:26:40;;;;;;;20;18;;;;;;;14.6;100;941.6147;;;;
2020/05/11 04:29:05;;;;;;;20.8;18.8;;;;;;;14.5;100;941.5912;;;;
2020/05/11 04:31:31;;;;;;;21.2;19;;;;;;;14.44;100;941.4642;;;;
2020/05/11 04:33:56;;;;;;;20.6;18.7;;;;;;;14.5;100;941.4478;;;;
2020/05/11 04:36:23;;;;;;;21.7;19.6;;;;;;;14.38;100;941.5231;;;;
2020/05/11 04:38:48;;;;;;;20.6;18.6;;;;;;;14.51;100;941.5076;;;;
2020/05/11 04:41:14;;;;;;;20.5;18.5;;;;;;;14.57;100;941.4334;;;;
2020/05/11 04:43:39;;;;;;;21.6;19.5;;;;;;;14.46;100;941.3064;;;;
2020/05/11 04:46:10;;;;;;;21.5;19.3;;;;;;;14.43;100;941.2595;;;;
2020/05/11 04:48:34;;;;;;;22.2;20;;;;;;;14.49;100;941.241;;;;
2020/05/11 04:51:40;;;;;;;21.7;19.6;;;;;;;14.48;100;941.2863;;;;
2020/05/11 04:53:20;;;;;;;21;18.9;;;;;;;14.58;100;941.3217;;;;
2020/05/11 04:55:46;;;;;;;21.7;19.7;;;;;;;14.38;100;941.2065;;;;
2020/05/11 04:58:23;;;;;;;21.8;19.8;;;;;;;14.34;100;941.0801;;;;
2020/05/11 05:00:36;;;;;;;23.4;21;;;;;;;14.35;100;941.0884;;;;
2020/05/11 05:03:01;;;;;;;23.7;21.3;;;;;;;14.31;100;941.0873;;;;
2020/05/11 05:05:26;;;;;;;21.8;19.6;;;;;;;14.43;100;941.1024;;;;
2020/05/11 05:07:51;;;;;;;21.4;19.4;;;;;;;14.45;100;941.1582;;;;
2020/05/11 05:10:16;;;;;;;21.8;19.7;;;;;;;14.39;100;941.0731;;;;
2020/05/11 05:12:46;;;;;;;21.2;19.2;;;;;;;14.47;100;941.1372;;;;
2020/05/11 05:15:11;;;;;;;20.6;18.7;;;;;;;14.56;100;941.1407;;;;
2020/05/11 05:17:36;;;;;;;21.1;19.1;;;;;;;14.48;100;941.0683;;;;
2020/05/11 05:20:01;;;;;;;19.8;17.8;;;;;;;14.65;100;941.0959;;;;
2020/05/11 05:22:26;;;;;;;19.2;17.3;;;;;;;14.65;100;941.0801;;;;
2020/05/11 05:24:52;;;;;;;18.8;16.9;;;;;;;14.73;100;941.0782;;;;
2020/05/11 05:27:18;;;;;;;19.2;17.3;;;;;;;14.66;100;940.9956;;;;
2020/05/11 05:29:43;;;;;;;19.6;17.7;;;;;;;14.66;100;940.9842;;;;
2020/05/11 05:32:11;;;;;;;19.4;17.4;;;;;;;14.68;100;940.9842;;;;
2020/05/11 05:34:36;;;;;;;19.4;17.5;;;;;;;14.76;100;940.9757;;;;
2020/05/11 05:37:01;;;;;;;18.6;16.8;;;;;;;14.84;100;941.0033;;;;
2020/05/11 05:39:26;;;;;;;19.6;17.6;;;;;;;14.73;100;940.8845;;;;
2020/05/11 05:41:53;;;;;;;18.9;17.1;;;;;;;14.75;100;940.853;;;;
2020/05/11 05:44:18;;;;;;;19.5;17.6;;;;;;;14.73;100;940.6806;;;;
2020/05/11 05:46:44;;;;;;;20.7;18.7;;;;;;;14.62;100;940.6703;;;;
2020/05/11 05:49:09;;;;;;;19.4;17.5;;;;;;;14.69;100;940.6169;;;;
2020/05/11 05:51:35;;;;;;;20.2;17.8;;;;;;;14.69;100;940.5635;;;;
2020/05/11 05:54:04;;;;;;;20;17.9;;;;;;;14.72;100;940.5103;;;;
2020/05/11 05:56:32;;;;;;;19.1;17.1;;;;;;;14.73;100;940.4264;;;;
2020/05/11 05:58:49;;;;;;;18;16.3;;;;;;;14.71;100;940.389;;;;
2020/05/11 06:01:20;;;;;;;19.2;17.3;;;;;;;14.67;100;940.3739;;;;
2020/05/11 06:03:39;;;;;;;20;17.9;;;;;;;14.7;100;940.2936;;;;
2020/05/11 06:06:04;;;;;;;18.2;16.2;;;;;;;14.72;100;940.248;;;;
2020/05/11 06:08:29;;;;;;;19.8;17.8;;;;;;;14.67;100;940.1369;;;;
2020/05/11 06:10:54;;;;;;;22.9;20.6;;;;;;;14.57;100;940.0472;;;;
2020/05/11 06:13:21;;;;;;;21.6;19.4;;;;;;;14.63;100;940.0012;;;;
2020/05/11 06:15:46;;;;;;;24.9;22.3;;;;;;;14.75;100;939.9486;;;;
2020/05/11 06:18:12;;;;;;;26.9;24.3;;;;;;;14.56;100;939.821;;;;
2020/05/11 06:20:37;;;;;;;27;24.3;;;;;;;14.62;100;939.7087;;;;
2020/05/11 06:23:03;;;;;;;27.3;24.6;;;;;;;14.49;100;939.6067;;;;
2020/05/11 06:25:30;;;;;;;28.7;26;;;;;;;14.38;100;939.5159;;;;
2020/05/11 06:27:53;;;;;;;30.9;28;;;;;;;14.26;100;939.5506;;;;
2020/05/11 06:30:22;;;;;;;29.4;26.7;;;;;;;14.43;100;939.6019;;;;
2020/05/11 06:32:47;;;;;;;30.4;27.5;;;;;;;14.34;100;939.5583;;;;
2020/05/11 06:35:12;;;;;;;31;28.1;;;;;;;14.44;100;939.6456;;;;
2020/05/11 06:37:37;;;;;;;30.6;27.9;;;;;;;14.44;100;939.6973;;;;
2020/05/11 06:40:02;;;;;;;29.4;26.8;;;;;;;14.4;100;939.718;;;;
2020/05/11 06:42:27;;;;;;;31.6;28.6;;;;;;;14.33;100;939.7773;;;;
2020/05/11 06:44:53;;;;;;;29.1;26.5;;;;;;;14.41;100;939.7506;;;;
2020/05/11 06:47:18;;;;;;;28.8;26.2;;;;;;;14.47;100;939.7733;;;;
2020/05/11 06:49:43;;;;;;;29.3;26.6;;;;;;;14.5;100;939.8603;;;;
2020/05/11 06:52:08;;;;;;;27.6;25.1;;;;;;;14.63;100;939.8184;;;;
2020/05/11 06:54:33;;;;;;;30.8;27.9;;;;;;;14.43;100;939.8925;;;;
2020/05/11 06:56:58;;;;;;;29.6;26.6;;;;;;;14.46;100;939.968;;;;
2020/05/11 06:59:24;;;;;;;30.2;27.4;;;;;;;14.22;100;940.0491;;;;
2020/05/11 07:01:49;;;;;;;30;27.2;;;;;;;14.48;100;940.1821;;;;
2020/05/11 07:04:14;;;;;;;30.4;27.5;;;;;;;14.54;100;940.2455;;;;
2020/05/11 07:06:39;;;;;;;28.8;26.2;;;;;;;14.6;100;940.2358;;;;
2020/05/11 07:09:05;;;;;;;27.2;24.5;;;;;;;14.62;100;940.2999;;;;
2020/05/11 07:11:30;;;;;;;25.8;23.3;;;;;;;14.81;100;940.2971;;;;
2020/05/11 07:13:55;;;;;;;23.4;21.3;;;;;;;14.92;100;940.2117;;;;
2020/05/11 07:16:20;;;;;;;22.2;20.2;;;;;;;14.76;100;940.1614;;;;
2020/05/11 07:18:47;;;;;;;22.7;20.6;;;;;;;14.76;100;940.1845;;;;
2020/05/11 07:21:12;;;;;;;22.1;20;;;;;;;14.81;100;940.279;;;;
2020/05/11 07:23:38;;;;;;;25.6;23.3;;;;;;;14.84;100;940.3345;;;;
2020/05/11 07:26:03;;;;;;;24.9;22.6;;;;;;;14.68;100;940.1113;;;;
2020/05/11 07:28:30;;;;;;;23.2;21.1;;;;;;;14.86;100;940.1233;;;;
2020/05/11 07:30:56;;;;;;;26.4;23.9;;;;;;;14.81;100;940.0847;;;;
2020/05/11 07:33:22;;;;;;;25.4;23.1;;;;;;;14.86;100;940.0609;;;;
2020/05/11 07:35:47;;;;;;;24.9;22.6;;;;;;;14.84;100;940.0881;;;;
2020/05/11 07:38:14;;;;;;;25.6;23.4;;;;;;;14.88;100;940.0204;;;;
2020/05/11 07:40:40;;;;;;;26.2;23.8;;;;;;;14.96;100;939.9656;;;;
2020/05/11 07:43:07;;;;;;;25.8;23.5;;;;;;;14.96;100;939.9394;;;;
2020/05/11 07:45:32;;;;;;;27.7;25.1;;;;;;;14.57;100;939.9572;;;;
2020/05/11 07:47:57;;;;;;;26.1;23.7;;;;;;;14.73;100;939.9612;;;;
2020/05/11 07:50:22;;;;;;;25.8;23.6;;;;;;;14.86;100;939.9905;;;;
2020/05/11 07:52:47;;;;;;;25.2;22.8;;;;;;;14.89;100;939.9565;;;;
2020/05/11 07:55:13;;;;;;;27.2;24.7;;;;;;;14.77;100;940.0823;;;;
2020/05/11 07:57:38;;;;;;;26.8;24.4;;;;;;;14.86;100;940.0214;;;;
2020/05/11 08:00:03;;;;;;;26.4;23.9;;;;;;;14.91;100;939.9881;;;;
2020/05/11 08:02:29;;;;;;;27.5;24.9;;;;;;;14.92;100;939.8705;;;;
2020/05/11 08:04:54;;;;;;;27.7;24.9;;;;;;;14.94;100;939.9668;;;;
2020/05/11 08:07:19;;;;;;;25.6;23.3;;;;;;;15.07;100;939.9381;;;;
2020/05/11 08:09:44;;;;;;;26.8;24.4;;;;;;;15.01;100;939.8801;;;;
2020/05/11 08:12:11;;;;;;;27.5;24.9;;;;;;;14.92;100;939.9277;;;;
2020/05/11 08:14:36;;;;;;;27.4;25;;;;;;;14.9;100;939.8663;;;;
2020/05/11 08:17:02;;;;;;;27.2;24.7;;;;;;;14.95;100;939.8654;;;;
2020/05/11 08:19:26;;;;;;;25.3;23.1;;;;;;;15;100;939.8214;;;;
2020/05/11 08:21:51;;;;;;;27.1;24.7;;;;;;;15.02;100;939.8013;;;;
2020/05/11 08:24:16;;;;;;;25.8;23.4;;;;;;;15.08;100;939.9562;;;;
2020/05/11 08:26:43;;;;;;;25.7;23.3;;;;;;;15.03;100;939.855;;;;
2020/05/11 08:29:08;;;;;;;25.7;23.3;;;;;;;15.2;100;939.8418;;;;
2020/05/11 08:31:33;;;;;;;24;21.9;;;;;;;15.33;100;939.7753;;;;
2020/05/11 08:33:59;;;;;;;26.4;23.9;;;;;;;15.1;100;939.7501;;;;
2020/05/11 08:36:24;;;;;;;26.4;23.9;;;;;;;15.16;100;939.8384;;;;
2020/05/11 08:38:50;;;;;;;27.8;25.3;;;;;;;15.19;100;939.8728;;;;
2020/05/11 08:41:16;;;;;;;24.6;22.4;;;;;;;15.27;100;939.9672;;;;
2020/05/11 08:43:41;;;;;;;26;23.7;;;;;;;15.26;100;940.0762;;;;
2020/05/11 08:46:06;;;;;;;26.1;23.8;;;;;;;15.2;100;940.2413;;;;
2020/05/11 08:48:32;;;;;;;25.6;23.1;;;;;;;15.01;100;940.3585;;;;
2020/05/11 08:50:57;;;;;;;25.1;22.9;;;;;;;15.2;100;940.3513;;;;
2020/05/11 08:53:27;;;;;;;23.2;21.1;;;;;;;15.34;100;940.3625;;;;
2020/05/11 08:55:47;;;;;;;25.4;23.2;;;;;;;14.88;100;940.3714;;;;
2020/05/11 08:58:26;;;;;;;25.1;22.8;;;;;;;14.93;100;940.4141;;;;
2020/05/11 09:05:35;;;;;;;26.6;24.2;;;;;;;14.96;100;940.3396;;;;
2020/05/11 09:07:56;;;;;;;24.8;22.5;;;;;;;15.21;100;940.2612;;;;
2020/05/11 09:10:21;;;;;;;24.7;22.6;;;;;;;15.13;100;940.3286;;;;
2020/05/11 09:12:46;;;;;;;26.3;24.1;;;;;;;15.23;100;940.407;;;;
2020/05/11 09:15:13;;;;;;;25.6;23.3;;;;;;;15.26;100;940.415;;;;
2020/05/11 09:17:38;;;;;;;25.9;23.7;;;;;;;15.23;100;940.525;;;;
2020/05/11 09:20:05;;;;;;;26;23.6;;;;;;;15.33;100;940.4763;;;;
2020/05/11 09:22:30;;;;;;;27;24.6;;;;;;;15.28;100;940.361;;;;
2020/05/11 09:24:55;;;;;;;27;24.5;;;;;;;15.31;100;940.3246;;;;
2020/05/11 09:27:20;;;;;;;27.4;25;;;;;;;15.35;100;940.3269;;;;
2020/05/11 09:29:45;;;;;;;26.9;24.5;;;;;;;15.42;100;940.2787;;;;
2020/05/11 09:32:10;;;;;;;27.1;24.6;;;;;;;15.29;100;940.2787;;;;
2020/05/11 09:34:35;;;;;;;27.1;24.7;;;;;;;15.22;100;940.3143;;;;
2020/05/11 09:37:00;;;;;;;27.7;25.3;;;;;;;15.2;100;940.2437;;;;
2020/05/11 09:39:25;;;;;;;28;25.6;;;;;;;15.34;100;940.205;;;;
2020/05/11 09:41:50;;;;;;;26.8;24.4;;;;;;;15.45;100;940.1383;;;;
2020/05/11 09:44:16;;;;;;;27.2;24.8;;;;;;;15.5;100;940.0875;;;;
2020/05/11 09:46:41;;;;;;;28;25.5;;;;;;;15.31;100;940.1039;;;;
2020/05/11 09:49:06;;;;;;;29.2;26.6;;;;;;;15.24;100;940.0578;;;;
2020/05/11 09:51:31;;;;;;;29.2;26.5;;;;;;;15.37;100;940.1013;;;;
2020/05/11 09:53:56;;;;;;;27.1;24.8;;;;;;;15.64;100;940.1288;;;;
2020/05/11 09:56:21;;;;;;;27.2;24.9;;;;;;;15.72;100;940.1602;;;;
2020/05/11 09:58:46;;;;;;;26.3;24;;;;;;;15.84;100;940.1439;;;;
2020/05/11 10:01:11;;;;;;;25.7;23.5;;;;;;;15.97;100;940.1395;;;;
2020/05/11 10:03:38;;;;;;;25.8;23.5;;;;;;;16.2;100;940.223;;;;
2020/05/11 10:06:03;;;;;;;23.5;21.5;;;;;;;16.32;97.72949;940.2486;;;;
2020/05/11 10:10:50;;;;;;;22.5;20.6;;;;;;;16.41;98.55371;940.238;;;;
2020/05/11 10:13:15;;;;;;;24;22;;;;;;;16.4;99.43848;940.1319;;;;
2020/05/11 10:15:40;;;;;;;24.1;22.1;;;;;;;16.44;97.69629;940.1163;;;;
2020/05/11 10:18:05;;;;;;;24.6;22.5;;;;;;;16.63;95.92969;940.0725;;;;
2020/05/11 10:20:30;;;;;;;24.9;22.4;;;;;;;16.75;94.68652;940.0236;;;;
2020/05/11 10:22:55;;;;;;;23.5;21.6;;;;;;;16.76;94.82715;939.8914;;;;
2020/05/11 10:25:21;;;;;;;24;21.9;;;;;;;16.83;95.28613;939.8212;;;;
2020/05/11 10:27:46;;;;;;;24.4;22.3;;;;;;;17.06;91.90234;939.8166;;;;
2020/05/11 10:30:11;;;;;;;25.4;23.2;;;;;;;16.92;93.55371;939.7966;;;;
2020/05/11 10:32:36;;;;;;;23.9;21.7;;;;;;;16.94;93.2207;939.798;;;;
2020/05/11 10:35:01;;;;;;;23.4;21.4;;;;;;;16.92;93.17969;939.8094;;;;
2020/05/11 10:37:26;;;;;;;22.1;20.1;;;;;;;16.86;93.19043;939.8522;;;;
2020/05/11 10:39:51;;;;;;;20.6;18.8;;;;;;;16.91;93.02637;939.9357;;;;
2020/05/11 10:42:16;;;;;;;21.5;19.4;;;;;;;16.81;94.23145;939.9064;;;;
2020/05/11 10:44:41;;;;;;;21.1;19.2;;;;;;;16.77;94.5957;939.9072;;;;
2020/05/11 10:47:09;;;;;;;19.3;17.7;;;;;;;16.93;91.55859;939.9103;;;;
2020/05/11 10:49:34;;;;;;;20.4;18.4;;;;;;;16.73;94.13184;939.8854;;;;
2020/05/11 10:52:00;;;;;;;19.9;18.1;;;;;;;16.71;93.75488;939.8442;;;;
2020/05/11 10:54:25;;;;;;;19.6;17.9;;;;;;;16.68;94.35645;939.8625;;;;
2020/05/11 10:56:52;;;;;;;19.3;17.7;;;;;;;16.66;95.07422;939.753;;;;
2020/05/11 10:59:17;;;;;;;19.2;17.5;;;;;;;16.58;95.40625;939.6483;;;;
2020/05/11 11:02:45;;;;;;;20.3;18.4;;;;;;;16.41;97.21289;939.6165;;;;
2020/05/11 11:04:10;;;;;;;19.9;18.2;;;;;;;16.53;99.02344;939.6557;;;;
2020/05/11 11:06:35;;;;;;;19.5;17.8;;;;;;;16.57;100;939.5787;;;;
2020/05/11 11:09:00;;;;;;;17.4;15.8;;;;;;;16.69;98.95508;939.5415;;;;
2020/05/11 11:11:25;;;;;;;16.5;15.1;;;;;;;16.65;99.18066;939.6392;;;;
2020/05/11 11:13:50;;;;;;;16.2;14.7;;;;;;;16.75;100;939.6362;;;;
2020/05/11 11:16:19;;;;;;;17.3;15.7;;;;;;;16.8;100;939.6891;;;;
2020/05/11 11:18:44;;;;;;;16.2;14.7;;;;;;;16.76;100;939.7668;;;;
2020/05/11 11:21:10;;;;;;;16.8;15.3;;;;;;;16.95;98.37109;939.7128;;;;
2020/05/11 11:23:35;;;;;;;16.2;14.7;;;;;;;17.05;96.75781;939.6163;;;;
2020/05/11 11:26:00;;;;;;;16.4;14.9;;;;;;;17.14;98.33203;939.6077;;;;
2020/05/11 11:28:25;;;;;;;15.8;14.4;;;;;;;17.15;97.55273;939.6058;;;;
2020/05/11 11:30:50;;;;;;;16;14.5;;;;;;;17.14;97.28223;939.723;;;;
2020/05/11 11:33:15;;;;;;;16.3;14.8;;;;;;;17.2;97.31738;939.7748;;;;
2020/05/11 11:35:40;;;;;;;16.2;14.6;;;;;;;16.97;96.37988;939.8481;;;;
2020/05/11 11:38:05;;;;;;;16.2;14.7;;;;;;;17.04;96.4873;939.9377;;;;
2020/05/11 11:40:41;;;;;;;15.3;13.9;;;;;;;17.19;96.19336;939.9572;;;;
2020/05/11 11:43:06;;;;;;;15.1;13.8;;;;;;;17.23;94.50879;939.9196;;;;
2020/05/11 11:45:32;;;;;;;15;13.7;;;;;;;17.41;93.33105;939.9297;;;;
2020/05/11 11:47:57;;;;;;;14.4;13;;;;;;;17.77;92.34277;939.9138;;;;
2020/05/11 11:50:22;;;;;;;13.8;12.4;;;;;;;17.9;91.43262;939.8998;;;;
2020/05/11 11:52:47;;;;;;;14;12.6;;;;;;;17.72;89.72461;939.8169;;;;
2020/05/11 11:55:12;;;;;;;14.2;12.8;;;;;;;18;90.34082;939.809;;;;
2020/05/11 11:57:40;;;;;;;14.1;12.8;;;;;;;18.16;88.25586;939.8336;;;;
2020/05/11 12:00:05;;;;;;;13.5;12.1;;;;;;;18.22;88.55957;939.8798;;;;
2020/05/11 12:02:33;;;;;;;13.4;12.2;;;;;;;18.3;85.09668;939.8275;;;;
2020/05/11 12:04:58;;;;;;;12.7;11.5;;;;;;;18.19;86.90332;939.9089;;;;
2020/05/11 12:07:23;;;;;;;13.5;12.2;;;;;;;18.45;86.8252;939.9026;;;;
2020/05/11 12:09:49;;;;;;;12.9;11.7;;;;;;;18.37;84.93457;939.9542;;;;
2020/05/11 12:12:14;;;;;;;12.5;11.4;;;;;;;18.32;84.13965;939.9719;;;;
2020/05/11 12:14:39;;;;;;;12.6;11.1;;;;;;;18.49;82.84766;940.0453;;;;
2020/05/11 12:17:04;;;;;;;12.5;11.3;;;;;;;18.95;81.83105;940.0808;;;;
2020/05/11 12:19:29;;;;;;;11.1;10;;;;;;;19.11;79.9248;940.1221;;;;
2020/05/11 12:21:55;;;;;;;12.4;11.1;;;;;;;18.85;79.37305;940.1381;;;;
2020/05/11 12:24:20;;;;;;;11.1;10.2;;;;;;;18.58;81.37598;940.2131;;;;
2020/05/11 12:26:45;;;;;;;11.2;10.1;;;;;;;18.6;81.32031;940.2791;;;;
2020/05/11 12:29:10;;;;;;;12.1;10.9;;;;;;;18.36;82.35547;940.3336;;;;
2020/05/11 12:31:35;;;;;;;12.1;11;;;;;;;18.2;83.36621;940.3251;;;;
2020/05/11 12:34:01;;;;;;;12.5;11.4;;;;;;;18.27;82.88965;940.3348;;;;
2020/05/11 12:36:26;;;;;;;11.7;10.6;;;;;;;18.2;81.25977;940.3635;;;;
2020/05/11 12:38:53;;;;;;;11.6;10.5;;;;;;;18.01;82.20801;940.4119;;;;
2020/05/11 12:41:18;;;;;;;11.6;10.5;;;;;;;18.13;80.89453;940.3517;;;;
2020/05/11 12:43:43;;;;;;;12;10.8;;;;;;;18.06;83.11816;940.3472;;;;
2020/05/11 12:46:08;;;;;;;11.7;10.5;;;;;;;18.14;80.79102;940.3547;;;;
2020/05/11 12:48:33;;;;;;;8;7.2;;;;;;;17.87;82.12109;940.5291;;;;
2020/05/11 12:50:58;;;;;;;7;5.6;;;;;;;16.59;87.29785;940.7228;;;;
2020/05/11 12:53:23;;;;;;;7;5.9;;;;;;;16.32;88.51563;940.7762;;;;
2020/05/11 12:55:48;;;;;;;6;5;;;;;;;16.26;89.04004;940.8706;;;;
2020/05/11 12:58:13;;;;;;;8;5;;;;;;;16.1;89.49805;941.0114;;;;
2020/05/11 13:00:39;;;;;;;5.7;5.2;;;;;;;15.74;90.18164;941.0186;;;;
2020/05/11 13:03:04;;;;;;;5.9;4.7;;;;;;;15.81;89.78711;941.075;;;;
2020/05/11 13:05:34;;;;;;;6.1;4.8;;;;;;;15.59;89.42676;941.0282;;;;
2020/05/11 13:07:59;;;;;;;5.7;5.1;;;;;;;15.18;91.54102;941.0928;;;;
2020/05/11 13:10:40;;;;;;;6.1;5.5;;;;;;;15.24;90.38086;941.054;;;;
2020/05/11 13:13:06;;;;;;;5.4;4.9;;;;;;;14.86;90.15039;941.1035;;;;
2020/05/11 13:15:31;;;;;;;6;5.4;;;;;;;14.9;89.66016;941.1138;;;;
2020/05/11 13:17:59;;;;;;;7.4;6.2;;;;;;;14.77;90.24805;941.2171;;;;
2020/05/11 13:20:24;;;;;;;7;6.3;;;;;;;14.49;90.49316;941.2424;;;;
2020/05/11 13:22:50;;;;;;;6;5.4;;;;;;;14.57;90.14746;941.2644;;;;
2020/05/11 13:25:15;;;;;;;5.4;4.8;;;;;;;14.2;90.65332;941.416;;;;
2020/05/11 13:27:41;;;;;;;5.3;4.8;;;;;;;14.26;91.52441;941.4827;;;;
2020/05/11 13:30:06;;;;;;;4.9;4.3;;;;;;;14.23;90.06738;941.597;;;;
2020/05/11 13:32:33;;;;;;;7.4;4.6;;;;;;;13.96;89.96582;941.7689;;;;
2020/05/11 13:34:58;;;;;;;7.3;4.8;;;;;;;13.73;91.44629;941.8553;;;;
2020/05/11 13:37:23;;;;;;;5.8;4.7;;;;;;;13.32;91.30371;942.1586;;;;
2020/05/11 13:39:49;;;;;;;6.4;4.8;;;;;;;12.86;92.89648;942.3787;;;;
2020/05/11 13:42:14;;;;;;;4.8;4.3;;;;;;;12.82;94.0791;942.8234;;;;
2020/05/11 13:44:39;;;;;;;6;4;;;;;;;12.9;90.90234;943.6412;;;;
2020/05/11 13:47:05;;;;;;;6.6;4;;;;;;;12.72;90.47168;943.5966;;;;
2020/05/11 13:49:30;;;;;;;4.9;2.6;;;;;;;12.25;90.09766;943.9086;;;;
2020/05/11 13:51:59;;;;;;;2.7;2.1;;;;;;;12.36;89.69238;943.6707;;;;
2020/05/11 13:54:24;;;;;;;4.5;2.4;;;;;;;11.61;92.30371;943.6004;;;;
2020/05/11 13:56:50;;;;;;;3.5;2.4;;;;;;;11.46;98.0166;943.4932;;;;
2020/05/11 13:59:15;;;;;;;5.9;2.4;;;;;;;11.48;100;943.4392;;;;
2020/05/11 14:01:41;;;;;;;4.8;2.1;;;;;;;10.96;100;943.3906;;;;
2020/05/11 14:04:06;;;;;;;2.4;2.2;;;;;;;11.1;100;943.3976;;;;
2020/05/11 14:06:31;;;;;;;2.4;2.2;;;;;;;11.09;100;943.413;;;;
2020/05/11 14:08:56;;;;;;;3.1;2.3;;;;;;;11.27;100;943.4975;;;;
2020/05/11 14:11:22;;;;;;;2.7;2;;;;;;;10.74;100;943.54;;;;
2020/05/11 14:16:17;;;;;;;2.9;2.2;;;;;;;11.1;100;943.4839;;;;
2020/05/11 14:18:42;;;;;;;1.9;1.7;;;;;;;11.11;100;943.5369;;;;
2020/05/11 14:21:07;;;;;;;3.5;1.9;;;;;;;11.13;100;943.5821;;;;
2020/05/11 14:23:32;;;;;;;1.9;1.5;;;;;;;10.79;100;943.7097;;;;
2020/05/11 14:25:58;;;;;;;1.9;1.6;;;;;;;10.43;100;943.6479;;;;
2020/05/11 14:28:27;;;;;;;1.9;1.5;;;;;;;10.54;100;943.7866;;;;
2020/05/11 14:31:28;;;;;;;1.7;1.6;;;;;;;10.22;100;943.8996;;;;
2020/05/11 14:34:40;;;;;;;3.2;1.5;;;;;;;10.14;100;943.8853;;;;
2020/05/11 14:37:05;;;;;;;1.4;1.3;;;;;;;10.38;100;943.9536;;;;
2020/05/11 14:39:31;;;;;;;1.7;1.1;;;;;;;10.04;100;943.9509;;;;
2020/05/11 14:41:56;;;;;;;1.6;1.2;;;;;;;9.81;100;943.9366;;;;
2020/05/11 14:44:22;;;;;;;1.8;1.3;;;;;;;10.02;100;943.7933;;;;
2020/05/11 14:46:47;;;;;;;1.2;1.1;;;;;;;9.99;100;943.8103;;;;
2020/05/11 14:49:12;;;;;;;1.6;0.8;;;;;;;9.88;100;943.7834;;;;
2020/05/11 14:51:37;;;;;;;0.8;0.7;;;;;;;9.63;100;943.7515;;;;
2020/05/11 14:54:55;;;;;;;2.1;0.6;;;;;;;9.65;98.97363;943.7231;;;;
2020/05/11 14:57:20;;;;;;;2.2;0.6;;;;;;;9.64;100;943.7297;;;;
2020/05/11 14:59:52;;;;;;;2.3;0.5;;;;;;;9.34;98.26172;943.7175;;;;
2020/05/11 15:02:17;;;;;;;1.3;0.6;;;;;;;9.33;97.87891;943.7988;;;;
2020/05/11 15:04:43;;;;;;;0.7;0.5;;;;;;;9.45;99.79883;943.9114;;;;
2020/05/11 15:07:08;;;;;;;0.6;0.5;;;;;;;9.13;100;943.8577;;;;
2020/05/11 15:09:34;;;;;;;1.8;1.3;;;;;;;9.17;98.8877;943.9811;;;;
2020/05/11 15:12:00;;;;;;;1.3;0.4;;;;;;;9.01;98.55273;944.1397;;;;
2020/05/11 15:14:25;;;;;;;0.5;0.4;;;;;;;8.84;94.41016;944.1502;;;;
2020/05/11 15:16:52;;;;;;;0.4;0.3;;;;;;;8.77;96.4707;944.2477;;;;
2020/05/11 15:19:17;;;;;;;0.7;0.3;;;;;;;8.73;92.98828;944.3351;;;;
2020/05/11 15:21:42;;;;;;;0.4;0.4;;;;;;;8.76;92.75391;944.375;;;;
2020/05/11 15:24:08;;;;;;;0.3;0.3;;;;;;;8.77;96.43457;944.4791;;;;
2020/05/11 15:26:33;;;;;;;0.5;0.4;;;;;;;8.41;94.63672;944.6838;;;;
2020/05/11 15:28:58;;;;;;;1.3;0.4;;;;;;;8.38;98.83105;944.793;;;;
2020/05/11 15:31:24;;;;;;;0.4;0.3;;;;;;;8.47;94.38672;944.921;;;;
2020/05/11 15:33:58;;;;;;;0.3;0.3;;;;;;;8.24;97.60938;945.1138;;;;
2020/05/11 15:36:21;;;;;;;0.6;0.4;;;;;;;8.32;95.86523;945.2115;;;;
2020/05/11 15:38:39;;;;;;;0.3;0.3;;;;;;;8.26;95.88477;945.3395;;;;
2020/05/11 15:41:07;;;;;;;0.3;0.3;;;;;;;8.43;96.19824;945.5449;;;;
2020/05/11 15:43:35;;;;;;;0.6;0.4;;;;;;;8.42;98.63477;945.6066;;;;
2020/05/11 15:46:00;;;;;;;0.4;0.3;;;;;;;8.3;95.65234;945.6666;;;;
2020/05/11 15:48:25;;;;;;;0.8;0.4;;;;;;;8.58;97.68652;945.7241;;;;
2020/05/11 15:50:50;;;;;;;1.1;0.4;;;;;;;8.35;93.94727;945.7441;;;;
2020/05/11 15:53:16;;;;;;;0.5;0.5;;;;;;;8.15;97.56641;945.8094;;;;
2020/05/11 15:55:42;;;;;;;0.6;0.6;;;;;;;8.34;93.375;945.9175;;;;
2020/05/11 15:58:07;;;;;;;0.9;0.4;;;;;;;8.21;95.00488;945.9826;;;;